Terminal Aerodrome Forecast
Issued by NWS

Home | Current Version | Previous Version | Text Only | Print | Product List | Glossary On
Versions: 1 2 3 4 5 6 7 8 9 10 11 12 13
000
FTUS46 KPDT 281120
TAFPSC
TAF
KPSC 281120Z 2812/2912 20008KT P6SM FEW090 BKN250
     FM281700 22011KT P6SM SCT250
     FM282200 24010KT P6SM SCT120 BKN250
     FM290400 VRB05KT P6SM BKN200=

USA.gov is the U.S. government's official web portal to all federal, state and local government web resources and services.